sensor_id;sensor_type;location;lat;lon;timestamp;pressure;altitude;pressure_sealevel;temperature;humidity
67345;BME280;54230;52.402;6.276;2022-09-23T00:00:00;101850.0;;;10.8;74.5
67345;BME280;54230;52.402;6.276;2022-09-23T00:05:00;101840.0;;;10.7;74.9
67345;BME280;54230;52.402;6.276;2022-09-23T00:10:00;101840.0;;;10.6;74.6
67345;BME280;54230;52.402;6.276;2022-09-23T00:15:00;101840.0;;;10.6;74.1
67345;BME280;54230;52.402;6.276;2022-09-23T00:20:00;101840.0;;;10.6;74.3
67345;BME280;54230;52.402;6.276;2022-09-23T00:25:00;101840.0;;;10.6;74.7
67345;BME280;54230;52.402;6.276;2022-09-23T00:30:00;101840.0;;;10.6;74.3
67345;BME280;54230;52.402;6.276;2022-09-23T00:35:00;101830.0;;;10.6;74.2
67345;BME280;54230;52.402;6.276;2022-09-23T00:40:00;101830.0;;;10.5;74.5
67345;BME280;54230;52.402;6.276;2022-09-23T00:45:00;101840.0;;;10.5;74.7
67345;BME280;54230;52.402;6.276;2022-09-23T00:50:04;101840.0;;;10.4;75.2
67345;BME280;54230;52.402;6.276;2022-09-23T00:55:03;101830.0;;;10.4;75.6
67345;BME280;54230;52.402;6.276;2022-09-23T01:00:00;101830.0;;;10.3;76.2
67345;BME280;54230;52.402;6.276;2022-09-23T01:05:00;101830.0;;;10.3;76.0
67345;BME280;54230;52.402;6.276;2022-09-23T01:10:00;101820.0;;;10.3;76.0
67345;BME280;54230;52.402;6.276;2022-09-23T01:15:05;101820.0;;;10.3;76.2
67345;BME280;54230;52.402;6.276;2022-09-23T01:20:11;101820.0;;;10.2;76.4
67345;BME280;54230;52.402;6.276;2022-09-23T01:25:17;101820.0;;;10.2;76.5
67345;BME280;54230;52.402;6.276;2022-09-23T01:30:07;101810.0;;;10.1;76.8
67345;BME280;54230;52.402;6.276;2022-09-23T01:35:03;101810.0;;;10.1;76.7
67345;BME280;54230;52.402;6.276;2022-09-23T01:40:04;101810.0;;;10.1;76.9
67345;BME280;54230;52.402;6.276;2022-09-23T01:45:05;101790.0;;;10.0;76.8
67345;BME280;54230;52.402;6.276;2022-09-23T01:50:05;101780.0;;;10.0;76.4
67345;BME280;54230;52.402;6.276;2022-09-23T01:55:07;101770.0;;;9.9;76.7
67345;BME280;54230;52.402;6.276;2022-09-23T02:00:07;101770.0;;;9.8;76.9
67345;BME280;54230;52.402;6.276;2022-09-23T02:05:02;101780.0;;;9.7;77.3
67345;BME280;54230;52.402;6.276;2022-09-23T02:10:05;101780.0;;;9.6;77.7
67345;BME280;54230;52.402;6.276;2022-09-23T02:15:03;101770.0;;;9.6;77.7
67345;BME280;54230;52.402;6.276;2022-09-23T02:20:02;101770.0;;;9.6;78.0
67345;BME280;54230;52.402;6.276;2022-09-23T02:25:00;101770.0;;;9.5;77.9
67345;BME280;54230;52.402;6.276;2022-09-23T02:30:04;101760.0;;;9.4;77.8
67345;BME280;54230;52.402;6.276;2022-09-23T02:35:04;101760.0;;;9.4;78.2
67345;BME280;54230;52.402;6.276;2022-09-23T02:40:05;101750.0;;;9.4;77.7
67345;BME280;54230;52.402;6.276;2022-09-23T02:45:00;101750.0;;;9.4;77.8
67345;BME280;54230;52.402;6.276;2022-09-23T02:50:00;101750.0;;;9.3;77.8
67345;BME280;54230;52.402;6.276;2022-09-23T02:55:00;101740.0;;;9.4;78.0
67345;BME280;54230;52.402;6.276;2022-09-23T03:00:00;101740.0;;;9.4;77.8
67345;BME280;54230;52.402;6.276;2022-09-23T03:05:04;101740.0;;;9.4;77.6
67345;BME280;54230;52.402;6.276;2022-09-23T03:10:04;101730.0;;;9.4;77.8
67345;BME280;54230;52.402;6.276;2022-09-23T03:15:07;101710.0;;;9.4;77.6
67345;BME280;54230;52.402;6.276;2022-09-23T03:20:02;101720.0;;;9.5;77.5
67345;BME280;54230;52.402;6.276;2022-09-23T03:25:02;101710.0;;;9.4;77.8
67345;BME280;54230;52.402;6.276;2022-09-23T03:30:00;101710.0;;;9.5;77.8
67345;BME280;54230;52.402;6.276;2022-09-23T03:35:01;101700.0;;;9.5;77.8
67345;BME280;54230;52.402;6.276;2022-09-23T03:40:02;101700.0;;;9.5;77.7
67345;BME280;54230;52.402;6.276;2022-09-23T03:45:03;101700.0;;;9.4;77.6
67345;BME280;54230;52.402;6.276;2022-09-23T03:50:00;101700.0;;;9.4;77.8
67345;BME280;54230;52.402;6.276;2022-09-23T03:55:00;101700.0;;;9.3;78.0
67345;BME280;54230;52.402;6.276;2022-09-23T04:00:00;101690.0;;;9.3;78.1
67345;BME280;54230;52.402;6.276;2022-09-23T04:05:00;101680.0;;;9.2;78.5
67345;BME280;54230;52.402;6.276;2022-09-23T04:10:00;101680.0;;;9.3;78.9
67345;BME280;54230;52.402;6.276;2022-09-23T04:15:00;101680.0;;;9.4;78.9
67345;BME280;54230;52.402;6.276;2022-09-23T04:20:00;101680.0;;;9.4;79.0
67345;BME280;54230;52.402;6.276;2022-09-23T04:25:00;101680.0;;;9.5;78.9
67345;BME280;54230;52.402;6.276;2022-09-23T04:30:00;101680.0;;;9.6;78.7
67345;BME280;54230;52.402;6.276;2022-09-23T04:35:00;101680.0;;;9.6;78.5
67345;BME280;54230;52.402;6.276;2022-09-23T04:40:00;101680.0;;;9.6;78.9
67345;BME280;54230;52.402;6.276;2022-09-23T04:45:00;101680.0;;;9.6;78.9
67345;BME280;54230;52.402;6.276;2022-09-23T04:50:00;101680.0;;;9.5;79.1
67345;BME280;54230;52.402;6.276;2022-09-23T04:55:00;101680.0;;;9.5;79.1
67345;BME280;54230;52.402;6.276;2022-09-23T05:00:00;101680.0;;;9.5;79.1
67345;BME280;54230;52.402;6.276;2022-09-23T05:05:00;101680.0;;;9.5;79.1
67345;BME280;54230;52.402;6.276;2022-09-23T05:10:00;101680.0;;;9.5;79.1
67345;BME280;54230;52.402;6.276;2022-09-23T05:15:00;101680.0;;;9.5;79.0
67345;BME280;54230;52.402;6.276;2022-09-23T05:20:00;101670.0;;;9.4;78.9
67345;BME280;54230;52.402;6.276;2022-09-23T05:25:00;101670.0;;;9.4;79.3
67345;BME280;54230;52.402;6.276;2022-09-23T05:30:00;101670.0;;;9.4;79.1
67345;BME280;54230;52.402;6.276;2022-09-23T05:35:00;101670.0;;;9.5;79.0
67345;BME280;54230;52.402;6.276;2022-09-23T05:40:00;101660.0;;;9.6;78.9
67345;BME280;54230;52.402;6.276;2022-09-23T05:45:00;101670.0;;;9.7;78.4
67345;BME280;54230;52.402;6.276;2022-09-23T05:50:00;101660.0;;;9.9;77.4
67345;BME280;54230;52.402;6.276;2022-09-23T05:55:00;101670.0;;;10.1;76.8
67345;BME280;54230;52.402;6.276;2022-09-23T06:00:00;101670.0;;;10.0;76.8
67345;BME280;54230;52.402;6.276;2022-09-23T06:15:00;101680.0;;;10.1;77.1
67345;BME280;54230;52.402;6.276;2022-09-23T06:20:00;101680.0;;;10.2;77.1
67345;BME280;54230;52.402;6.276;2022-09-23T06:25:00;101680.0;;;10.2;77.0
67345;BME280;54230;52.402;6.276;2022-09-23T06:30:00;101680.0;;;10.2;76.9
67345;BME280;54230;52.402;6.276;2022-09-23T06:35:00;101680.0;;;10.3;76.9
67345;BME280;54230;52.402;6.276;2022-09-23T06:40:00;101680.0;;;10.4;76.8
67345;BME280;54230;52.402;6.276;2022-09-23T06:45:00;101680.0;;;10.4;76.5
67345;BME280;54230;52.402;6.276;2022-09-23T06:50:00;101680.0;;;10.5;76.3
67345;BME280;54230;52.402;6.276;2022-09-23T06:55:00;101680.0;;;10.6;76.3
67345;BME280;54230;52.402;6.276;2022-09-23T07:00:00;101680.0;;;10.7;76.1
67345;BME280;54230;52.402;6.276;2022-09-23T07:05:00;101680.0;;;10.8;75.9
67345;BME280;54230;52.402;6.276;2022-09-23T07:10:00;101680.0;;;10.9;75.7
67345;BME280;54230;52.402;6.276;2022-09-23T07:15:00;101680.0;;;11.0;75.4
67345;BME280;54230;52.402;6.276;2022-09-23T07:20:00;101670.0;;;11.1;75.1
67345;BME280;54230;52.402;6.276;2022-09-23T07:25:00;101680.0;;;11.2;74.8
67345;BME280;54230;52.402;6.276;2022-09-23T07:30:00;101680.0;;;11.4;74.5
67345;BME280;54230;52.402;6.276;2022-09-23T07:35:00;101680.0;;;11.5;73.7
67345;BME280;54230;52.402;6.276;2022-09-23T07:40:00;101680.0;;;11.6;73.3
67345;BME280;54230;52.402;6.276;2022-09-23T07:45:00;101680.0;;;11.8;73.1
67345;BME280;54230;52.402;6.276;2022-09-23T07:50:00;101660.0;;;11.9;72.3
67345;BME280;54230;52.402;6.276;2022-09-23T07:55:00;101670.0;;;12.2;71.6
67345;BME280;54230;52.402;6.276;2022-09-23T08:00:00;101670.0;;;12.4;71.1
67345;BME280;54230;52.402;6.276;2022-09-23T08:05:00;101670.0;;;12.6;70.4
67345;BME280;54230;52.402;6.276;2022-09-23T08:10:00;101670.0;;;12.9;69.9
67345;BME280;54230;52.402;6.276;2022-09-23T08:15:00;101670.0;;;13.0;69.4
67345;BME280;54230;52.402;6.276;2022-09-23T08:20:00;101670.0;;;13.1;68.9
67345;BME280;54230;52.402;6.276;2022-09-23T08:25:00;101670.0;;;13.4;69.2
67345;BME280;54230;52.402;6.276;2022-09-23T08:30:00;101670.0;;;13.6;68.3
67345;BME280;54230;52.402;6.276;2022-09-23T08:35:00;101670.0;;;13.6;68.1
67345;BME280;54230;52.402;6.276;2022-09-23T08:40:00;101680.0;;;13.7;67.7
67345;BME280;54230;52.402;6.276;2022-09-23T08:45:02;101670.0;;;14.0;67.1
67345;BME280;54230;52.402;6.276;2022-09-23T08:50:04;101670.0;;;14.2;67.4
67345;BME280;54230;52.402;6.276;2022-09-23T08:55:00;101660.0;;;14.2;66.8
67345;BME280;54230;52.402;6.276;2022-09-23T09:00:00;101670.0;;;14.4;66.6
67345;BME280;54230;52.402;6.276;2022-09-23T09:05:02;101670.0;;;14.8;65.3
67345;BME280;54230;52.402;6.276;2022-09-23T09:10:04;101670.0;;;15.1;65.2
67345;BME280;54230;52.402;6.276;2022-09-23T09:15:02;101670.0;;;15.2;64.5
67345;BME280;54230;52.402;6.276;2022-09-23T09:20:02;101660.0;;;15.3;64.3
67345;BME280;54230;52.402;6.276;2022-09-23T09:25:04;101650.0;;;15.5;64.1
67345;BME280;54230;52.402;6.276;2022-09-23T09:30:00;101650.0;;;15.7;63.4
67345;BME280;54230;52.402;6.276;2022-09-23T09:35:04;101650.0;;;15.9;62.8
67345;BME280;54230;52.402;6.276;2022-09-23T09:40:00;101640.0;;;16.0;62.0
67345;BME280;54230;52.402;6.276;2022-09-23T09:45:02;101640.0;;;16.0;61.2
67345;BME280;54230;52.402;6.276;2022-09-23T09:50:04;101640.0;;;16.1;61.4
67345;BME280;54230;52.402;6.276;2022-09-23T10:00:16;101630.0;;;16.3;60.6
67345;BME280;54230;52.402;6.276;2022-09-23T10:05:02;101630.0;;;16.4;60.1
67345;BME280;54230;52.402;6.276;2022-09-23T10:10:12;101630.0;;;16.4;59.8
67345;BME280;54230;52.402;6.276;2022-09-23T10:15:00;101620.0;;;16.6;60.1
67345;BME280;54230;52.402;6.276;2022-09-23T10:20:04;101630.0;;;16.8;59.5
67345;BME280;54230;52.402;6.276;2022-09-23T10:25:05;101620.0;;;17.0;59.0
67345;BME280;54230;52.402;6.276;2022-09-23T10:30:02;101620.0;;;17.2;59.2
67345;BME280;54230;52.402;6.276;2022-09-23T10:35:11;101620.0;;;17.3;58.6
67345;BME280;54230;52.402;6.276;2022-09-23T10:40:11;101620.0;;;17.3;58.5
67345;BME280;54230;52.402;6.276;2022-09-23T10:45:05;101620.0;;;17.5;57.6
67345;BME280;54230;52.402;6.276;2022-09-23T10:50:13;101610.0;;;17.6;57.9
67345;BME280;54230;52.402;6.276;2022-09-23T10:55:09;101610.0;;;17.7;56.7
67345;BME280;54230;52.402;6.276;2022-09-23T11:00:02;101610.0;;;17.6;56.5
67345;BME280;54230;52.402;6.276;2022-09-23T11:05:10;101610.0;;;17.7;56.9
67345;BME280;54230;52.402;6.276;2022-09-23T11:15:14;101610.0;;;17.8;57.3
67345;BME280;54230;52.402;6.276;2022-09-23T11:20:17;101610.0;;;17.7;57.4
67345;BME280;54230;52.402;6.276;2022-09-23T11:25:06;101610.0;;;17.7;57.4
67345;BME280;54230;52.402;6.276;2022-09-23T11:30:06;101600.0;;;17.7;57.3
67345;BME280;54230;52.402;6.276;2022-09-23T11:35:09;101590.0;;;17.6;57.6
67345;BME280;54230;52.402;6.276;2022-09-23T11:40:02;101590.0;;;17.5;58.3
67345;BME280;54230;52.402;6.276;2022-09-23T11:45:05;101580.0;;;17.3;58.7
67345;BME280;54230;52.402;6.276;2022-09-23T11:50:02;101580.0;;;17.3;58.6
67345;BME280;54230;52.402;6.276;2022-09-23T11:55:04;101580.0;;;17.2;58.5
67345;BME280;54230;52.402;6.276;2022-09-23T12:00:02;101580.0;;;17.2;58.5
67345;BME280;54230;52.402;6.276;2022-09-23T12:05:02;101590.0;;;17.0;58.5
67345;BME280;54230;52.402;6.276;2022-09-23T12:10:02;101580.0;;;17.1;59.1
67345;BME280;54230;52.402;6.276;2022-09-23T12:15:03;101580.0;;;17.2;59.2
67345;BME280;54230;52.402;6.276;2022-09-23T12:20:16;101580.0;;;17.2;59.1
67345;BME280;54230;52.402;6.276;2022-09-23T12:25:14;101580.0;;;17.2;59.2
67345;BME280;54230;52.402;6.276;2022-09-23T12:30:01;101570.0;;;17.4;59.0
67345;BME280;54230;52.402;6.276;2022-09-23T12:35:00;101570.0;;;17.5;58.4
67345;BME280;54230;52.402;6.276;2022-09-23T12:40:05;101560.0;;;17.5;58.4
67345;BME280;54230;52.402;6.276;2022-09-23T12:50:00;101560.0;;;17.7;57.8
67345;BME280;54230;52.402;6.276;2022-09-23T13:00:14;101560.0;;;17.6;57.4
67345;BME280;54230;52.402;6.276;2022-09-23T13:05:13;101550.0;;;17.6;58.0
67345;BME280;54230;52.402;6.276;2022-09-23T13:10:07;101550.0;;;17.9;57.5
67345;BME280;54230;52.402;6.276;2022-09-23T13:15:09;101540.0;;;18.1;56.6
67345;BME280;54230;52.402;6.276;2022-09-23T13:20:02;101530.0;;;18.4;56.2
67345;BME280;54230;52.402;6.276;2022-09-23T13:25:01;101520.0;;;18.4;56.3
67345;BME280;54230;52.402;6.276;2022-09-23T13:30:03;101520.0;;;18.6;55.9
67345;BME280;54230;52.402;6.276;2022-09-23T13:35:03;101520.0;;;18.8;55.4
67345;BME280;54230;52.402;6.276;2022-09-23T13:40:08;101520.0;;;18.9;55.1
67345;BME280;54230;52.402;6.276;2022-09-23T13:45:00;101520.0;;;18.9;54.7
67345;BME280;54230;52.402;6.276;2022-09-23T13:50:01;101510.0;;;19.0;54.8
67345;BME280;54230;52.402;6.276;2022-09-23T13:55:00;101510.0;;;18.7;54.6
67345;BME280;54230;52.402;6.276;2022-09-23T14:00:01;101500.0;;;18.7;54.9
67345;BME280;54230;52.402;6.276;2022-09-23T14:05:09;101490.0;;;18.6;54.9
67345;BME280;54230;52.402;6.276;2022-09-23T14:10:00;101490.0;;;18.5;54.5
67345;BME280;54230;52.402;6.276;2022-09-23T14:15:00;101490.0;;;18.4;54.1
67345;BME280;54230;52.402;6.276;2022-09-23T14:20:00;101490.0;;;18.5;54.5
67345;BME280;54230;52.402;6.276;2022-09-23T14:25:00;101480.0;;;18.4;54.8
67345;BME280;54230;52.402;6.276;2022-09-23T14:30:01;101480.0;;;18.2;54.8
67345;BME280;54230;52.402;6.276;2022-09-23T14:35:05;101470.0;;;18.0;55.0
67345;BME280;54230;52.402;6.276;2022-09-23T14:40:00;101470.0;;;17.9;55.4
67345;BME280;54230;52.402;6.276;2022-09-23T14:45:00;101470.0;;;17.8;55.5
67345;BME280;54230;52.402;6.276;2022-09-23T14:50:00;101450.0;;;17.6;55.9
67345;BME280;54230;52.402;6.276;2022-09-23T14:55:00;101470.0;;;17.7;56.1
67345;BME280;54230;52.402;6.276;2022-09-23T15:00:07;101470.0;;;17.7;56.5
67345;BME280;54230;52.402;6.276;2022-09-23T15:05:13;101460.0;;;17.6;56.3
67345;BME280;54230;52.402;6.276;2022-09-23T15:10:00;101460.0;;;17.6;56.7
67345;BME280;54230;52.402;6.276;2022-09-23T15:15:00;101450.0;;;17.6;56.7
67345;BME280;54230;52.402;6.276;2022-09-23T15:20:03;101440.0;;;17.5;56.5
67345;BME280;54230;52.402;6.276;2022-09-23T15:25:13;101440.0;;;17.6;56.2
67345;BME280;54230;52.402;6.276;2022-09-23T15:30:10;101440.0;;;17.7;56.8
67345;BME280;54230;52.402;6.276;2022-09-23T15:35:00;101440.0;;;17.7;56.3
67345;BME280;54230;52.402;6.276;2022-09-23T15:40:00;101440.0;;;17.7;56.8
67345;BME280;54230;52.402;6.276;2022-09-23T15:45:00;101440.0;;;17.6;57.0
67345;BME280;54230;52.402;6.276;2022-09-23T15:50:00;101440.0;;;17.5;56.9
67345;BME280;54230;52.402;6.276;2022-09-23T15:55:00;101440.0;;;17.4;57.0
67345;BME280;54230;52.402;6.276;2022-09-23T16:00:00;101440.0;;;17.3;57.4
67345;BME280;54230;52.402;6.276;2022-09-23T16:05:00;101430.0;;;17.3;57.8
67345;BME280;54230;52.402;6.276;2022-09-23T16:10:00;101430.0;;;17.3;58.0
67345;BME280;54230;52.402;6.276;2022-09-23T16:15:00;101430.0;;;17.3;58.3
67345;BME280;54230;52.402;6.276;2022-09-23T16:20:00;101430.0;;;17.2;58.9
67345;BME280;54230;52.402;6.276;2022-09-23T16:25:00;101420.0;;;17.2;59.0
67345;BME280;54230;52.402;6.276;2022-09-23T16:30:00;101410.0;;;17.1;59.6
67345;BME280;54230;52.402;6.276;2022-09-23T16:35:00;101410.0;;;17.0;59.9
67345;BME280;54230;52.402;6.276;2022-09-23T16:40:00;101420.0;;;17.2;59.8
67345;BME280;54230;52.402;6.276;2022-09-23T16:45:00;101400.0;;;17.2;59.6
67345;BME280;54230;52.402;6.276;2022-09-23T16:50:00;101420.0;;;17.2;59.7
67345;BME280;54230;52.402;6.276;2022-09-23T16:55:00;101420.0;;;17.3;59.5
67345;BME280;54230;52.402;6.276;2022-09-23T17:00:00;101420.0;;;17.3;59.6
67345;BME280;54230;52.402;6.276;2022-09-23T17:05:00;101420.0;;;17.3;60.0
67345;BME280;54230;52.402;6.276;2022-09-23T17:10:00;101420.0;;;17.2;60.6
67345;BME280;54230;52.402;6.276;2022-09-23T17:15:02;101420.0;;;17.1;63.1
67345;BME280;54230;52.402;6.276;2022-09-23T17:20:00;101420.0;;;17.0;64.9
67345;BME280;54230;52.402;6.276;2022-09-23T17:25:00;101430.0;;;16.9;66.1
67345;BME280;54230;52.402;6.276;2022-09-23T17:30:00;101430.0;;;16.8;67.7
67345;BME280;54230;52.402;6.276;2022-09-23T17:35:00;101440.0;;;16.7;67.6
67345;BME280;54230;52.402;6.276;2022-09-23T17:40:00;101430.0;;;16.4;69.0
67345;BME280;54230;52.402;6.276;2022-09-23T17:45:00;101440.0;;;16.4;69.8
67345;BME280;54230;52.402;6.276;2022-09-23T17:50:00;101430.0;;;16.4;72.3
67345;BME280;54230;52.402;6.276;2022-09-23T17:55:00;101430.0;;;16.1;73.8
67345;BME280;54230;52.402;6.276;2022-09-23T18:00:00;101420.0;;;15.8;76.4
67345;BME280;54230;52.402;6.276;2022-09-23T18:05:00;101420.0;;;15.8;77.2
67345;BME280;54230;52.402;6.276;2022-09-23T18:10:00;101410.0;;;15.6;77.4
67345;BME280;54230;52.402;6.276;2022-09-23T18:15:00;101420.0;;;15.7;77.6
67345;BME280;54230;52.402;6.276;2022-09-23T18:20:00;101420.0;;;15.7;78.2
67345;BME280;54230;52.402;6.276;2022-09-23T18:25:00;101420.0;;;15.6;78.6
67345;BME280;54230;52.402;6.276;2022-09-23T18:30:00;101420.0;;;15.6;78.2
67345;BME280;54230;52.402;6.276;2022-09-23T18:35:00;101420.0;;;15.5;78.5
67345;BME280;54230;52.402;6.276;2022-09-23T18:40:00;101420.0;;;15.4;79.3
67345;BME280;54230;52.402;6.276;2022-09-23T18:45:00;101410.0;;;15.4;78.8
67345;BME280;54230;52.402;6.276;2022-09-23T18:50:00;101420.0;;;15.3;79.5
67345;BME280;54230;52.402;6.276;2022-09-23T18:55:00;101410.0;;;15.4;80.1
67345;BME280;54230;52.402;6.276;2022-09-23T19:00:00;101420.0;;;15.3;80.5
67345;BME280;54230;52.402;6.276;2022-09-23T19:05:00;101420.0;;;15.3;81.3
67345;BME280;54230;52.402;6.276;2022-09-23T19:10:00;101420.0;;;15.2;81.1
67345;BME280;54230;52.402;6.276;2022-09-23T19:15:00;101420.0;;;15.2;80.7
67345;BME280;54230;52.402;6.276;2022-09-23T19:20:00;101420.0;;;15.2;79.2
67345;BME280;54230;52.402;6.276;2022-09-23T19:25:00;101420.0;;;15.2;78.1
67345;BME280;54230;52.402;6.276;2022-09-23T19:30:00;101410.0;;;15.2;76.8
67345;BME280;54230;52.402;6.276;2022-09-23T19:35:00;101420.0;;;15.2;76.6
67345;BME280;54230;52.402;6.276;2022-09-23T19:40:00;101410.0;;;15.3;76.6
67345;BME280;54230;52.402;6.276;2022-09-23T19:45:00;101410.0;;;15.3;76.1
67345;BME280;54230;52.402;6.276;2022-09-23T19:50:00;101400.0;;;15.3;76.0
67345;BME280;54230;52.402;6.276;2022-09-23T19:55:00;101410.0;;;15.2;76.2
67345;BME280;54230;52.402;6.276;2022-09-23T20:00:00;101410.0;;;15.2;76.3
67345;BME280;54230;52.402;6.276;2022-09-23T20:05:00;101410.0;;;15.1;76.7
67345;BME280;54230;52.402;6.276;2022-09-23T20:10:00;101410.0;;;15.1;77.2
67345;BME280;54230;52.402;6.276;2022-09-23T20:15:00;101410.0;;;15.0;78.1
67345;BME280;54230;52.402;6.276;2022-09-23T20:20:00;101410.0;;;15.0;78.5
67345;BME280;54230;52.402;6.276;2022-09-23T20:25:00;101400.0;;;14.9;79.1
67345;BME280;54230;52.402;6.276;2022-09-23T20:30:00;101400.0;;;14.9;79.8
67345;BME280;54230;52.402;6.276;2022-09-23T20:35:00;101400.0;;;14.9;79.9
67345;BME280;54230;52.402;6.276;2022-09-23T20:40:00;101400.0;;;14.9;80.3
67345;BME280;54230;52.402;6.276;2022-09-23T20:45:00;101390.0;;;14.9;81.1
67345;BME280;54230;52.402;6.276;2022-09-23T20:50:00;101390.0;;;14.9;81.1
67345;BME280;54230;52.402;6.276;2022-09-23T20:55:00;101380.0;;;14.9;81.4
67345;BME280;54230;52.402;6.276;2022-09-23T21:00:00;101380.0;;;14.8;82.2
67345;BME280;54230;52.402;6.276;2022-09-23T21:05:00;101380.0;;;14.8;82.5
67345;BME280;54230;52.402;6.276;2022-09-23T21:10:00;101370.0;;;14.8;83.2
67345;BME280;54230;52.402;6.276;2022-09-23T21:15:00;101370.0;;;14.9;83.0
67345;BME280;54230;52.402;6.276;2022-09-23T21:20:00;101370.0;;;14.9;83.1
67345;BME280;54230;52.402;6.276;2022-09-23T21:25:00;101370.0;;;14.9;83.7
67345;BME280;54230;52.402;6.276;2022-09-23T21:30:00;101360.0;;;14.9;83.7
67345;BME280;54230;52.402;6.276;2022-09-23T21:35:00;101360.0;;;14.8;84.2
67345;BME280;54230;52.402;6.276;2022-09-23T21:40:00;101360.0;;;14.8;84.4
67345;BME280;54230;52.402;6.276;2022-09-23T21:45:00;101360.0;;;14.8;84.8
67345;BME280;54230;52.402;6.276;2022-09-23T21:50:00;101340.0;;;14.7;85.0
67345;BME280;54230;52.402;6.276;2022-09-23T21:55:00;101350.0;;;14.7;85.5
67345;BME280;54230;52.402;6.276;2022-09-23T22:00:00;101350.0;;;14.7;85.8
67345;BME280;54230;52.402;6.276;2022-09-23T22:05:00;101350.0;;;14.7;85.8
67345;BME280;54230;52.402;6.276;2022-09-23T22:10:00;101350.0;;;14.7;86.0
67345;BME280;54230;52.402;6.276;2022-09-23T22:15:00;101350.0;;;14.7;86.0
67345;BME280;54230;52.402;6.276;2022-09-23T22:20:00;101350.0;;;14.7;86.1
67345;BME280;54230;52.402;6.276;2022-09-23T22:25:00;101350.0;;;14.6;86.5
67345;BME280;54230;52.402;6.276;2022-09-23T22:30:00;101350.0;;;14.6;86.4
67345;BME280;54230;52.402;6.276;2022-09-23T22:35:00;101340.0;;;14.6;86.5
67345;BME280;54230;52.402;6.276;2022-09-23T22:40:00;101340.0;;;14.6;86.4
67345;BME280;54230;52.402;6.276;2022-09-23T22:45:00;101340.0;;;14.6;86.7
67345;BME280;54230;52.402;6.276;2022-09-23T22:50:00;101340.0;;;14.5;87.0
67345;BME280;54230;52.402;6.276;2022-09-23T22:55:00;101340.0;;;14.5;86.8
67345;BME280;54230;52.402;6.276;2022-09-23T23:00:00;101340.0;;;14.4;87.1
67345;BME280;54230;52.402;6.276;2022-09-23T23:05:00;101340.0;;;14.5;87.0
67345;BME280;54230;52.402;6.276;2022-09-23T23:10:00;101330.0;;;14.5;86.9
67345;BME280;54230;52.402;6.276;2022-09-23T23:15:00;101330.0;;;14.5;86.8
67345;BME280;54230;52.402;6.276;2022-09-23T23:20:00;101330.0;;;14.5;86.7
67345;BME280;54230;52.402;6.276;2022-09-23T23:25:00;101320.0;;;14.4;86.7
67345;BME280;54230;52.402;6.276;2022-09-23T23:30:00;101330.0;;;14.4;86.8
67345;BME280;54230;52.402;6.276;2022-09-23T23:35:00;101330.0;;;14.5;86.8
67345;BME280;54230;52.402;6.276;2022-09-23T23:40:00;101320.0;;;14.4;86.7
67345;BME280;54230;52.402;6.276;2022-09-23T23:45:00;101320.0;;;14.4;86.7
67345;BME280;54230;52.402;6.276;2022-09-23T23:50:00;101320.0;;;14.4;86.7
67345;BME280;54230;52.402;6.276;2022-09-23T23:55:00;101310.0;;;14.4;86.7
